Terminal Aerodrome Forecast
Issued by NWS

Current Version | Previous Version | Text Only | Print | Product List | Glossary On
Versions: 1 2 3 4 5 6 7 8 9 10 11 12 13 14 15
000
FTUS43 KLSX 240800 AAA
TAFUIN
TAF AMD
KUIN 240800Z 2408/2506 VRB04KT 3SM BR BKN006
     FM241500 20007KT P6SM FEW015 SCT030
     FM242100 20010KT P6SM FEW040 SCT250
     FM250000 20006KT P6SM FEW040 SCT250=

USA.gov is the U.S. government's official web portal to all federal, state and local government web resources and services.